sensor_id;sensor_type;location;lat;lon;timestamp;pressure;altitude;pressure_sealevel;temperature;humidity
12757;BME280;31601;48.042;12.240;2022-10-16T00:00:35;96232.47;;;15.08;73.24
12757;BME280;31601;48.042;12.240;2022-10-16T00:03:02;96240.81;;;15.04;72.83
12757;BME280;31601;48.042;12.240;2022-10-16T00:05:28;96249.34;;;15.07;72.90
12757;BME280;31601;48.042;12.240;2022-10-16T00:07:55;96242.47;;;14.99;72.87
12757;BME280;31601;48.042;12.240;2022-10-16T00:10:22;96246.53;;;14.95;73.00
12757;BME280;31601;48.042;12.240;2022-10-16T00:12:50;96245.38;;;14.91;72.95
12757;BME280;31601;48.042;12.240;2022-10-16T00:15:16;96249.22;;;14.88;72.98
12757;BME280;31601;48.042;12.240;2022-10-16T00:17:43;96258.88;;;14.69;72.96
12757;BME280;31601;48.042;12.240;2022-10-16T00:20:10;96261.25;;;14.77;72.93
12757;BME280;31601;48.042;12.240;2022-10-16T00:22:36;96257.19;;;14.75;72.97
12757;BME280;31601;48.042;12.240;2022-10-16T00:25:03;96254.78;;;14.73;72.86
12757;BME280;31601;48.042;12.240;2022-10-16T00:27:29;96262.09;;;14.71;72.87
12757;BME280;31601;48.042;12.240;2022-10-16T00:29:57;96259.91;;;14.61;73.19
12757;BME280;31601;48.042;12.240;2022-10-16T00:32:24;96249.13;;;14.63;73.03
12757;BME280;31601;48.042;12.240;2022-10-16T00:34:51;96249.34;;;14.61;72.97
12757;BME280;31601;48.042;12.240;2022-10-16T00:37:20;96259.50;;;14.51;73.48
12757;BME280;31601;48.042;12.240;2022-10-16T00:39:46;96265.78;;;14.57;73.15
12757;BME280;31601;48.042;12.240;2022-10-16T00:42:15;96260.09;;;14.53;73.14
12757;BME280;31601;48.042;12.240;2022-10-16T00:44:45;96256.06;;;14.50;72.80
12757;BME280;31601;48.042;12.240;2022-10-16T00:47:18;96262.94;;;14.51;72.67
12757;BME280;31601;48.042;12.240;2022-10-16T00:49:47;96264.59;;;14.46;72.73
12757;BME280;31601;48.042;12.240;2022-10-16T00:52:14;96267.84;;;14.41;72.87
12757;BME280;31601;48.042;12.240;2022-10-16T00:54:41;96276.38;;;14.37;72.55
12757;BME280;31601;48.042;12.240;2022-10-16T00:57:07;96276.84;;;14.13;73.20
12757;BME280;31601;48.042;12.240;2022-10-16T00:59:36;96281.72;;;13.96;73.91
12757;BME280;31601;48.042;12.240;2022-10-16T01:02:04;96275.22;;;14.06;73.87
12757;BME280;31601;48.042;12.240;2022-10-16T01:04:35;96270.56;;;14.01;73.96
12757;BME280;31601;48.042;12.240;2022-10-16T01:07:07;96269.53;;;13.82;74.36
12757;BME280;31601;48.042;12.240;2022-10-16T01:09:45;96270.56;;;13.88;74.53
12757;BME280;31601;48.042;12.240;2022-10-16T01:12:15;96266.69;;;13.97;73.76
12757;BME280;31601;48.042;12.240;2022-10-16T01:14:48;96273.00;;;14.03;73.62
12757;BME280;31601;48.042;12.240;2022-10-16T01:17:23;96259.59;;;14.04;73.50
12757;BME280;31601;48.042;12.240;2022-10-16T01:20:15;96261.19;;;14.05;73.69
12757;BME280;31601;48.042;12.240;2022-10-16T01:22:50;96256.13;;;14.10;73.79
12757;BME280;31601;48.042;12.240;2022-10-16T01:25:25;96265.06;;;14.03;73.78
12757;BME280;31601;48.042;12.240;2022-10-16T01:27:59;96267.28;;;13.99;73.70
12757;BME280;31601;48.042;12.240;2022-10-16T01:30:30;96266.69;;;13.97;73.64
12757;BME280;31601;48.042;12.240;2022-10-16T01:33:02;96272.97;;;13.96;73.61
12757;BME280;31601;48.042;12.240;2022-10-16T01:35:36;96268.31;;;13.98;73.51
12757;BME280;31601;48.042;12.240;2022-10-16T01:38:05;96263.06;;;13.98;73.40
12757;BME280;31601;48.042;12.240;2022-10-16T01:40:36;96257.78;;;13.85;73.54
12757;BME280;31601;48.042;12.240;2022-10-16T01:43:08;96259.59;;;13.71;74.27
12757;BME280;31601;48.042;12.240;2022-10-16T01:45:37;96263.44;;;13.68;74.46
12757;BME280;31601;48.042;12.240;2022-10-16T01:48:06;96270.16;;;13.71;73.91
12757;BME280;31601;48.042;12.240;2022-10-16T01:50:37;96268.31;;;13.71;73.89
12757;BME280;31601;48.042;12.240;2022-10-16T01:53:07;96269.53;;;13.75;73.66
12757;BME280;31601;48.042;12.240;2022-10-16T01:55:37;96279.88;;;13.77;73.62
12757;BME280;31601;48.042;12.240;2022-10-16T01:58:09;96281.72;;;13.83;73.30
12757;BME280;31601;48.042;12.240;2022-10-16T02:00:38;96287.38;;;13.80;73.41
12757;BME280;31601;48.042;12.240;2022-10-16T02:03:06;96290.84;;;13.67;73.22
12757;BME280;31601;48.042;12.240;2022-10-16T02:05:37;96297.13;;;13.66;73.23
12757;BME280;31601;48.042;12.240;2022-10-16T02:08:06;96285.56;;;13.67;73.33
12757;BME280;31601;48.042;12.240;2022-10-16T02:10:35;96287.81;;;13.70;73.10
12757;BME280;31601;48.042;12.240;2022-10-16T02:13:06;96291.44;;;13.69;72.99
12757;BME280;31601;48.042;12.240;2022-10-16T02:15:35;96290.84;;;13.67;72.87
12757;BME280;31601;48.042;12.240;2022-10-16T02:18:02;96283.34;;;13.64;72.97
12757;BME280;31601;48.042;12.240;2022-10-16T02:20:33;96279.88;;;13.64;72.73
12757;BME280;31601;48.042;12.240;2022-10-16T02:23:01;96284.53;;;13.61;72.77
12757;BME280;31601;48.042;12.240;2022-10-16T02:25:32;96287.78;;;13.64;72.77
12757;BME280;31601;48.042;12.240;2022-10-16T02:28:03;96294.28;;;13.61;72.87
12757;BME280;31601;48.042;12.240;2022-10-16T02:30:36;96290.63;;;13.62;72.76
12757;BME280;31601;48.042;12.240;2022-10-16T02:33:08;96289.22;;;13.66;72.72
12757;BME280;31601;48.042;12.240;2022-10-16T02:35:36;96292.25;;;13.63;72.55
12757;BME280;31601;48.042;12.240;2022-10-16T02:38:05;96295.50;;;13.52;72.89
12757;BME280;31601;48.042;12.240;2022-10-16T02:40:32;96304.59;;;13.56;72.96
12757;BME280;31601;48.042;12.240;2022-10-16T02:42:59;96296.28;;;13.59;72.70
12757;BME280;31601;48.042;12.240;2022-10-16T02:45:26;96291.22;;;13.57;72.76
12757;BME280;31601;48.042;12.240;2022-10-16T02:47:56;96287.78;;;13.57;72.64
12757;BME280;31601;48.042;12.240;2022-10-16T02:50:23;96286.34;;;13.54;72.46
12757;BME280;31601;48.042;12.240;2022-10-16T02:52:50;96288.78;;;13.42;72.84
12757;BME280;31601;48.042;12.240;2022-10-16T02:55:17;96294.84;;;13.50;72.86
12757;BME280;31601;48.042;12.240;2022-10-16T02:57:43;96297.09;;;13.46;72.78
12757;BME280;31601;48.042;12.240;2022-10-16T03:00:13;96306.00;;;13.38;73.03
12757;BME280;31601;48.042;12.240;2022-10-16T03:02:40;96306.97;;;13.31;72.51
12757;BME280;31601;48.042;12.240;2022-10-16T03:05:09;96303.91;;;13.27;72.50
12757;BME280;31601;48.042;12.240;2022-10-16T03:07:36;96297.00;;;13.26;72.30
12757;BME280;31601;48.042;12.240;2022-10-16T03:10:03;96300.44;;;13.20;72.44
12757;BME280;31601;48.042;12.240;2022-10-16T03:12:30;96300.75;;;12.90;72.97
12757;BME280;31601;48.042;12.240;2022-10-16T03:14:57;96312.03;;;12.77;73.13
12757;BME280;31601;48.042;12.240;2022-10-16T03:17:24;96309.94;;;12.66;73.49
12757;BME280;31601;48.042;12.240;2022-10-16T03:19:51;96312.47;;;12.81;72.92
12757;BME280;31601;48.042;12.240;2022-10-16T03:22:19;96296.69;;;12.87;72.73
12757;BME280;31601;48.042;12.240;2022-10-16T03:24:45;96295.28;;;12.92;72.67
12757;BME280;31601;48.042;12.240;2022-10-16T03:27:12;96289.84;;;12.93;72.60
12757;BME280;31601;48.042;12.240;2022-10-16T03:29:39;96300.16;;;12.95;72.51
12757;BME280;31601;48.042;12.240;2022-10-16T03:32:06;96301.38;;;12.92;72.47
12757;BME280;31601;48.042;12.240;2022-10-16T03:34:32;96303.81;;;12.94;72.51
12757;BME280;31601;48.042;12.240;2022-10-16T03:36:59;96310.06;;;12.93;72.44
12757;BME280;31601;48.042;12.240;2022-10-16T03:39:26;96323.66;;;12.96;72.37
12757;BME280;31601;48.042;12.240;2022-10-16T03:41:53;96323.22;;;12.86;72.19
12757;BME280;31601;48.042;12.240;2022-10-16T03:44:20;96318.75;;;12.86;72.24
12757;BME280;31601;48.042;12.240;2022-10-16T03:46:46;96309.44;;;12.84;72.29
12757;BME280;31601;48.042;12.240;2022-10-16T03:49:13;96308.00;;;12.81;72.16
12757;BME280;31601;48.042;12.240;2022-10-16T03:51:39;96305.97;;;12.83;72.17
12757;BME280;31601;48.042;12.240;2022-10-16T03:54:06;96310.03;;;12.79;72.26
12757;BME280;31601;48.042;12.240;2022-10-16T03:56:34;96307.19;;;12.81;72.33
12757;BME280;31601;48.042;12.240;2022-10-16T03:59:00;96308.41;;;12.78;72.54
12757;BME280;31601;48.042;12.240;2022-10-16T04:01:27;96319.72;;;12.79;72.52
12757;BME280;31601;48.042;12.240;2022-10-16T04:03:53;96317.09;;;12.79;72.50
12757;BME280;31601;48.042;12.240;2022-10-16T04:06:20;96321.56;;;12.78;72.43
12757;BME280;31601;48.042;12.240;2022-10-16T04:08:46;96321.75;;;12.77;72.29
12757;BME280;31601;48.042;12.240;2022-10-16T04:11:13;96330.97;;;12.59;72.71
12757;BME280;31601;48.042;12.240;2022-10-16T04:13:41;96328.28;;;12.52;72.71
12757;BME280;31601;48.042;12.240;2022-10-16T04:16:07;96333.75;;;12.51;72.67
12757;BME280;31601;48.042;12.240;2022-10-16T04:18:34;96325.72;;;12.59;72.68
12757;BME280;31601;48.042;12.240;2022-10-16T04:21:03;96324.94;;;12.65;72.71
12757;BME280;31601;48.042;12.240;2022-10-16T04:23:30;96329.19;;;12.66;72.72
12757;BME280;31601;48.042;12.240;2022-10-16T04:25:56;96335.88;;;12.69;72.45
12757;BME280;31601;48.042;12.240;2022-10-16T04:28:23;96344.16;;;12.66;72.41
12757;BME280;31601;48.042;12.240;2022-10-16T04:30:50;96353.22;;;12.57;72.57
12757;BME280;31601;48.042;12.240;2022-10-16T04:33:17;96342.66;;;12.50;72.23
12757;BME280;31601;48.042;12.240;2022-10-16T04:35:43;96347.94;;;12.50;72.14
12757;BME280;31601;48.042;12.240;2022-10-16T04:38:10;96349.78;;;12.56;72.15
12757;BME280;31601;48.042;12.240;2022-10-16T04:40:36;96345.94;;;12.59;72.27
12757;BME280;31601;48.042;12.240;2022-10-16T04:43:03;96347.81;;;12.65;71.91
12757;BME280;31601;48.042;12.240;2022-10-16T04:45:31;96339.91;;;12.65;72.40
12757;BME280;31601;48.042;12.240;2022-10-16T04:47:59;96344.97;;;12.66;72.52
12757;BME280;31601;48.042;12.240;2022-10-16T04:50:26;96343.41;;;12.72;72.29
12757;BME280;31601;48.042;12.240;2022-10-16T04:52:52;96337.53;;;12.77;72.65
12757;BME280;31601;48.042;12.240;2022-10-16T04:55:19;96339.19;;;12.84;72.46
12757;BME280;31601;48.042;12.240;2022-10-16T04:57:46;96340.59;;;12.80;72.74
12757;BME280;31601;48.042;12.240;2022-10-16T05:00:13;96340.66;;;12.87;72.68
12757;BME280;31601;48.042;12.240;2022-10-16T05:02:39;96335.81;;;12.97;72.45
12757;BME280;31601;48.042;12.240;2022-10-16T05:05:08;96324.50;;;13.03;72.47
12757;BME280;31601;48.042;12.240;2022-10-16T05:07:35;96335.81;;;12.97;72.50
12757;BME280;31601;48.042;12.240;2022-10-16T05:10:01;96335.22;;;13.02;72.07
12757;BME280;31601;48.042;12.240;2022-10-16T05:12:28;96339.69;;;13.08;71.46
12757;BME280;31601;48.042;12.240;2022-10-16T05:14:55;96336.47;;;13.06;71.46
12757;BME280;31601;48.042;12.240;2022-10-16T05:17:23;96326.72;;;13.06;71.32
12757;BME280;31601;48.042;12.240;2022-10-16T05:19:50;96326.72;;;13.06;71.39
12757;BME280;31601;48.042;12.240;2022-10-16T05:22:18;96326.53;;;13.08;71.53
12757;BME280;31601;48.042;12.240;2022-10-16T05:24:45;96326.13;;;13.04;71.77
12757;BME280;31601;48.042;12.240;2022-10-16T05:27:11;96326.56;;;13.15;71.61
12757;BME280;31601;48.042;12.240;2022-10-16T05:29:44;96311.56;;;13.08;71.99
12757;BME280;31601;48.042;12.240;2022-10-16T05:32:11;96314.00;;;13.17;71.70
12757;BME280;31601;48.042;12.240;2022-10-16T05:34:37;96313.63;;;13.26;71.83
12757;BME280;31601;48.042;12.240;2022-10-16T05:37:04;96312.47;;;13.36;71.88
12757;BME280;31601;48.042;12.240;2022-10-16T05:39:32;96311.25;;;13.38;71.89
12757;BME280;31601;48.042;12.240;2022-10-16T05:41:58;96318.03;;;13.13;72.17
12757;BME280;31601;48.042;12.240;2022-10-16T05:44:25;96321.94;;;13.23;71.94
12757;BME280;31601;48.042;12.240;2022-10-16T05:46:51;96323.84;;;13.36;71.81
12757;BME280;31601;48.042;12.240;2022-10-16T05:49:18;96341.25;;;13.37;71.73
12757;BME280;31601;48.042;12.240;2022-10-16T05:51:44;96332.16;;;13.47;71.89
12757;BME280;31601;48.042;12.240;2022-10-16T05:54:11;96333.41;;;13.57;71.81
12757;BME280;31601;48.042;12.240;2022-10-16T05:56:39;96336.47;;;13.68;71.74
12757;BME280;31601;48.042;12.240;2022-10-16T05:59:05;96336.25;;;13.76;71.81
12757;BME280;31601;48.042;12.240;2022-10-16T06:01:32;96344.81;;;13.98;71.57
12757;BME280;31601;48.042;12.240;2022-10-16T06:03:59;96343.81;;;14.12;70.80
12757;BME280;31601;48.042;12.240;2022-10-16T06:06:27;96344.41;;;14.21;70.46
12757;BME280;31601;48.042;12.240;2022-10-16T06:08:56;96344.00;;;14.31;70.76
12757;BME280;31601;48.042;12.240;2022-10-16T06:11:24;96348.03;;;14.40;70.78
12757;BME280;31601;48.042;12.240;2022-10-16T06:13:53;96349.06;;;14.32;70.83
12757;BME280;31601;48.042;12.240;2022-10-16T06:16:21;96347.81;;;14.48;70.75
12757;BME280;31601;48.042;12.240;2022-10-16T06:18:50;96352.50;;;14.46;70.94
12757;BME280;31601;48.042;12.240;2022-10-16T06:21:18;96350.69;;;14.60;70.28
12757;BME280;31601;48.042;12.240;2022-10-16T06:23:46;96354.34;;;14.46;71.03
12757;BME280;31601;48.042;12.240;2022-10-16T06:26:14;96362.03;;;14.74;70.82
12757;BME280;31601;48.042;12.240;2022-10-16T06:28:41;96364.00;;;14.99;70.26
12757;BME280;31601;48.042;12.240;2022-10-16T06:31:10;96375.47;;;15.31;69.71
12757;BME280;31601;48.042;12.240;2022-10-16T06:33:38;96376.16;;;15.58;69.35
12757;BME280;31601;48.042;12.240;2022-10-16T06:36:07;96384.63;;;15.67;68.95
12757;BME280;31601;48.042;12.240;2022-10-16T06:38:34;96396.44;;;15.71;68.96
12757;BME280;31601;48.042;12.240;2022-10-16T06:41:01;96396.47;;;15.58;69.50
12757;BME280;31601;48.042;12.240;2022-10-16T06:43:29;96391.72;;;15.73;69.25
12757;BME280;31601;48.042;12.240;2022-10-16T06:45:58;96387.69;;;15.64;69.20
12757;BME280;31601;48.042;12.240;2022-10-16T06:48:27;96392.69;;;15.86;69.02
12757;BME280;31601;48.042;12.240;2022-10-16T06:50:57;96397.41;;;15.84;69.47
12757;BME280;31601;48.042;12.240;2022-10-16T06:53:25;96394.69;;;15.90;69.30
12757;BME280;31601;48.042;12.240;2022-10-16T06:55:52;96394.38;;;15.80;69.75
12757;BME280;31601;48.042;12.240;2022-10-16T06:58:19;96401.84;;;15.83;69.96
12757;BME280;31601;48.042;12.240;2022-10-16T07:00:46;96401.78;;;15.97;70.04
12757;BME280;31601;48.042;12.240;2022-10-16T07:03:12;96404.66;;;16.20;69.76
12757;BME280;31601;48.042;12.240;2022-10-16T07:05:42;96399.78;;;16.49;69.27
12757;BME280;31601;48.042;12.240;2022-10-16T07:08:09;96396.78;;;16.39;69.34
12757;BME280;31601;48.042;12.240;2022-10-16T07:10:35;96393.47;;;16.50;69.43
12757;BME280;31601;48.042;12.240;2022-10-16T07:13:02;96406.66;;;16.32;69.39
12757;BME280;31601;48.042;12.240;2022-10-16T07:15:29;96409.66;;;16.35;69.43
12757;BME280;31601;48.042;12.240;2022-10-16T07:17:55;96413.16;;;16.54;69.21
12757;BME280;31601;48.042;12.240;2022-10-16T07:20:22;96407.34;;;16.45;69.58
12757;BME280;31601;48.042;12.240;2022-10-16T07:22:50;96414.69;;;16.69;69.34
12757;BME280;31601;48.042;12.240;2022-10-16T07:25:17;96417.41;;;16.80;68.76
12757;BME280;31601;48.042;12.240;2022-10-16T07:27:43;96423.19;;;16.96;68.61
12757;BME280;31601;48.042;12.240;2022-10-16T07:30:10;96424.47;;;17.12;68.14
12757;BME280;31601;48.042;12.240;2022-10-16T07:32:37;96434.34;;;17.23;67.52
12757;BME280;31601;48.042;12.240;2022-10-16T07:35:04;96435.00;;;17.37;67.30
12757;BME280;31601;48.042;12.240;2022-10-16T07:37:31;96436.19;;;17.41;67.06
12757;BME280;31601;48.042;12.240;2022-10-16T07:39:59;96434.47;;;17.28;67.13
12757;BME280;31601;48.042;12.240;2022-10-16T07:42:27;96442.44;;;17.47;66.51
12757;BME280;31601;48.042;12.240;2022-10-16T07:44:53;96453.78;;;17.54;66.34
12757;BME280;31601;48.042;12.240;2022-10-16T07:47:20;96449.47;;;17.41;66.59
12757;BME280;31601;48.042;12.240;2022-10-16T07:49:46;96448.47;;;17.54;66.89
12757;BME280;31601;48.042;12.240;2022-10-16T07:52:13;96454.53;;;17.61;66.72
12757;BME280;31601;48.042;12.240;2022-10-16T07:54:40;96460.25;;;17.77;66.83
12757;BME280;31601;48.042;12.240;2022-10-16T07:57:08;96453.91;;;17.78;66.40
12757;BME280;31601;48.042;12.240;2022-10-16T07:59:34;96455.84;;;17.89;65.21
12757;BME280;31601;48.042;12.240;2022-10-16T08:02:01;96460.03;;;17.78;65.64
12757;BME280;31601;48.042;12.240;2022-10-16T08:04:27;96457.59;;;17.95;65.62
12757;BME280;31601;48.042;12.240;2022-10-16T08:06:54;96461.41;;;17.99;65.42
12757;BME280;31601;48.042;12.240;2022-10-16T08:09:20;96457.66;;;17.88;65.71
12757;BME280;31601;48.042;12.240;2022-10-16T08:11:47;96459.94;;;18.03;65.08
12757;BME280;31601;48.042;12.240;2022-10-16T08:14:15;96454.50;;;18.10;64.67
12757;BME280;31601;48.042;12.240;2022-10-16T08:16:41;96454.00;;;18.20;65.42
12757;BME280;31601;48.042;12.240;2022-10-16T08:19:08;96460.00;;;18.27;65.10
12757;BME280;31601;48.042;12.240;2022-10-16T08:21:34;96466.66;;;18.18;64.97
12757;BME280;31601;48.042;12.240;2022-10-16T08:24:01;96475.19;;;18.08;65.45
12757;BME280;31601;48.042;12.240;2022-10-16T08:26:27;96470.94;;;18.19;65.67
12757;BME280;31601;48.042;12.240;2022-10-16T08:28:54;96471.22;;;18.29;65.63
12757;BME280;31601;48.042;12.240;2022-10-16T08:31:23;96476.31;;;18.42;64.65
12757;BME280;31601;48.042;12.240;2022-10-16T08:33:51;96474.03;;;18.46;64.81
12757;BME280;31601;48.042;12.240;2022-10-16T08:36:17;96478.59;;;18.27;66.65
12757;BME280;31601;48.042;12.240;2022-10-16T08:38:47;96474.72;;;18.53;65.09
12757;BME280;31601;48.042;12.240;2022-10-16T08:41:22;96481.91;;;18.76;64.92
12757;BME280;31601;48.042;12.240;2022-10-16T08:44:03;96491.63;;;18.71;64.92
12757;BME280;31601;48.042;12.240;2022-10-16T08:46:41;96491.34;;;18.49;65.26
12757;BME280;31601;48.042;12.240;2022-10-16T08:49:12;96495.25;;;18.34;65.02
12757;BME280;31601;48.042;12.240;2022-10-16T08:51:40;96497.06;;;18.22;64.22
12757;BME280;31601;48.042;12.240;2022-10-16T08:54:21;96492.59;;;18.34;63.98
12757;BME280;31601;48.042;12.240;2022-10-16T08:56:49;96494.25;;;18.59;62.92
12757;BME280;31601;48.042;12.240;2022-10-16T08:59:16;96493.00;;;18.73;63.04
12757;BME280;31601;48.042;12.240;2022-10-16T09:01:46;96488.56;;;19.09;62.87
12757;BME280;31601;48.042;12.240;2022-10-16T09:04:40;96491.44;;;19.31;62.63
12757;BME280;31601;48.042;12.240;2022-10-16T09:07:18;96496.16;;;19.53;61.79
12757;BME280;31601;48.042;12.240;2022-10-16T09:10:05;96490.91;;;19.70;61.57
12757;BME280;31601;48.042;12.240;2022-10-16T09:12:38;96492.47;;;19.30;62.04
12757;BME280;31601;48.042;12.240;2022-10-16T09:15:16;96486.91;;;19.44;61.73
12757;BME280;31601;48.042;12.240;2022-10-16T09:17:54;96491.31;;;19.50;60.96
12757;BME280;31601;48.042;12.240;2022-10-16T09:20:30;96488.31;;;19.46;61.68
12757;BME280;31601;48.042;12.240;2022-10-16T09:23:16;96489.53;;;19.79;60.94
12757;BME280;31601;48.042;12.240;2022-10-16T09:25:46;96495.69;;;20.09;60.41
12757;BME280;31601;48.042;12.240;2022-10-16T09:28:14;96503.63;;;20.20;60.46
12757;BME280;31601;48.042;12.240;2022-10-16T09:30:41;96500.63;;;20.17;59.43
12757;BME280;31601;48.042;12.240;2022-10-16T09:33:10;96502.28;;;19.77;59.55
12757;BME280;31601;48.042;12.240;2022-10-16T09:35:39;96498.69;;;19.83;60.61
12757;BME280;31601;48.042;12.240;2022-10-16T09:38:08;96502.44;;;20.28;59.95
12757;BME280;31601;48.042;12.240;2022-10-16T09:40:36;96515.22;;;20.43;60.18
12757;BME280;31601;48.042;12.240;2022-10-16T09:43:16;96512.38;;;20.33;60.05
12757;BME280;31601;48.042;12.240;2022-10-16T09:45:59;96513.34;;;20.27;59.24
12757;BME280;31601;48.042;12.240;2022-10-16T09:48:31;96512.97;;;20.52;57.45
12757;BME280;31601;48.042;12.240;2022-10-16T09:51:01;96517.28;;;20.53;57.68
12757;BME280;31601;48.042;12.240;2022-10-16T09:53:41;96513.22;;;20.79;57.84
12757;BME280;31601;48.042;12.240;2022-10-16T09:56:10;96514.31;;;21.00;57.86
12757;BME280;31601;48.042;12.240;2022-10-16T09:58:42;96505.25;;;21.18;57.31
12757;BME280;31601;48.042;12.240;2022-10-16T10:01:12;96518.66;;;21.23;56.98
12757;BME280;31601;48.042;12.240;2022-10-16T10:03:42;96509.59;;;21.41;56.42
12757;BME280;31601;48.042;12.240;2022-10-16T10:06:22;96515.16;;;21.57;56.73
12757;BME280;31601;48.042;12.240;2022-10-16T10:08:54;96504.78;;;21.60;56.97
12757;BME280;31601;48.042;12.240;2022-10-16T10:11:55;96503.25;;;21.64;57.06
12757;BME280;31601;48.042;12.240;2022-10-16T10:14:24;96497.59;;;21.44;57.92
12757;BME280;31601;48.042;12.240;2022-10-16T10:17:00;96493.38;;;21.65;58.01
12757;BME280;31601;48.042;12.240;2022-10-16T10:19:29;96497.28;;;21.57;58.28
12757;BME280;31601;48.042;12.240;2022-10-16T10:21:55;96505.47;;;21.73;57.66
12757;BME280;31601;48.042;12.240;2022-10-16T10:24:22;96500.31;;;21.88;57.47
12757;BME280;31601;48.042;12.240;2022-10-16T10:26:56;96505.34;;;22.07;57.22
12757;BME280;31601;48.042;12.240;2022-10-16T10:29:39;96498.44;;;22.11;56.35
12757;BME280;31601;48.042;12.240;2022-10-16T10:32:19;96496.38;;;22.18;56.34
12757;BME280;31601;48.042;12.240;2022-10-16T10:35:15;96505.34;;;22.07;56.64
12757;BME280;31601;48.042;12.240;2022-10-16T10:38:06;96496.47;;;22.28;57.34
12757;BME280;31601;48.042;12.240;2022-10-16T10:40:50;96498.44;;;22.33;56.80
12757;BME280;31601;48.042;12.240;2022-10-16T10:43:27;96506.72;;;22.37;57.11
12757;BME280;31601;48.042;12.240;2022-10-16T10:46:00;96504.13;;;22.42;56.32
12757;BME280;31601;48.042;12.240;2022-10-16T10:51:27;96505.09;;;22.63;55.06
12757;BME280;31601;48.042;12.240;2022-10-16T10:54:05;96505.69;;;22.65;55.08
12757;BME280;31601;48.042;12.240;2022-10-16T10:56:44;96498.06;;;22.84;54.90
12757;BME280;31601;48.042;12.240;2022-10-16T10:59:32;96500.84;;;22.94;54.98
12757;BME280;31601;48.042;12.240;2022-10-16T11:02:06;96491.16;;;22.88;55.07
12757;BME280;31601;48.042;12.240;2022-10-16T11:05:12;96491.00;;;23.05;54.56
12757;BME280;31601;48.042;12.240;2022-10-16T11:07:47;96484.41;;;23.13;54.11
12757;BME280;31601;48.042;12.240;2022-10-16T11:10:19;96489.44;;;23.09;54.35
12757;BME280;31601;48.042;12.240;2022-10-16T11:12:48;96478.44;;;23.05;54.16
12757;BME280;31601;48.042;12.240;2022-10-16T11:15:20;96488.22;;;23.22;54.30
12757;BME280;31601;48.042;12.240;2022-10-16T11:17:51;96486.00;;;23.14;53.94
12757;BME280;31601;48.042;12.240;2022-10-16T11:20:20;96488.75;;;23.29;54.47
12757;BME280;31601;48.042;12.240;2022-10-16T11:22:54;96490.41;;;23.35;54.84
12757;BME280;31601;48.042;12.240;2022-10-16T11:25:24;96496.63;;;23.03;55.70
12757;BME280;31601;48.042;12.240;2022-10-16T11:27:57;96488.72;;;23.19;55.29
12757;BME280;31601;48.042;12.240;2022-10-16T11:30:27;96481.34;;;23.41;53.95
12757;BME280;31601;48.042;12.240;2022-10-16T11:33:03;96481.41;;;23.57;53.26
12757;BME280;31601;48.042;12.240;2022-10-16T11:35:40;96474.41;;;23.46;54.02
12757;BME280;31601;48.042;12.240;2022-10-16T11:38:15;96480.88;;;23.55;53.94
12757;BME280;31601;48.042;12.240;2022-10-16T11:40:45;96476.31;;;23.55;54.77
12757;BME280;31601;48.042;12.240;2022-10-16T11:43:17;96474.56;;;23.23;54.83
12757;BME280;31601;48.042;12.240;2022-10-16T11:45:51;96474.66;;;23.39;54.76
12757;BME280;31601;48.042;12.240;2022-10-16T11:48:25;96469.25;;;23.34;53.75
12757;BME280;31601;48.042;12.240;2022-10-16T11:50:56;96471.81;;;23.61;54.12
12757;BME280;31601;48.042;12.240;2022-10-16T11:53:35;96478.03;;;23.77;53.53
12757;BME280;31601;48.042;12.240;2022-10-16T11:56:05;96473.00;;;23.86;53.70
12757;BME280;31601;48.042;12.240;2022-10-16T11:58:33;96471.34;;;23.74;52.21
12757;BME280;31601;48.042;12.240;2022-10-16T12:01:15;96477.16;;;23.66;51.82
12757;BME280;31601;48.042;12.240;2022-10-16T12:03:46;96470.25;;;23.75;50.98
12757;BME280;31601;48.042;12.240;2022-10-16T12:06:23;96473.44;;;23.67;50.81
12757;BME280;31601;48.042;12.240;2022-10-16T12:08:54;96468.94;;;23.78;51.07
12757;BME280;31601;48.042;12.240;2022-10-16T12:11:33;96468.69;;;23.85;51.45
12757;BME280;31601;48.042;12.240;2022-10-16T12:16:54;96463.94;;;24.07;51.65
12757;BME280;31601;48.042;12.240;2022-10-16T12:19:22;96464.22;;;24.11;52.20
12757;BME280;31601;48.042;12.240;2022-10-16T12:21:51;96462.91;;;24.08;51.38
12757;BME280;31601;48.042;12.240;2022-10-16T12:24:31;96462.59;;;23.94;49.76
12757;BME280;31601;48.042;12.240;2022-10-16T12:26:58;96458.56;;;23.92;49.07
12757;BME280;31601;48.042;12.240;2022-10-16T12:29:32;96456.97;;;24.06;49.43
12757;BME280;31601;48.042;12.240;2022-10-16T12:31:59;96455.16;;;24.22;50.94
12757;BME280;31601;48.042;12.240;2022-10-16T12:34:29;96463.47;;;24.26;50.43
12757;BME280;31601;48.042;12.240;2022-10-16T12:37:08;96461.56;;;24.26;48.36
12757;BME280;31601;48.042;12.240;2022-10-16T12:39:36;96467.50;;;24.28;48.78
12757;BME280;31601;48.042;12.240;2022-10-16T12:42:05;96466.66;;;24.28;48.98
12757;BME280;31601;48.042;12.240;2022-10-16T12:44:33;96464.47;;;24.09;48.89
12757;BME280;31601;48.042;12.240;2022-10-16T12:47:01;96469.31;;;24.12;48.95
12757;BME280;31601;48.042;12.240;2022-10-16T12:49:36;96467.47;;;24.13;49.70
12757;BME280;31601;48.042;12.240;2022-10-16T12:52:03;96463.44;;;24.16;47.84
12757;BME280;31601;48.042;12.240;2022-10-16T12:54:31;96457.81;;;24.17;46.03
12757;BME280;31601;48.042;12.240;2022-10-16T12:57:10;96460.22;;;24.19;45.47
12757;BME280;31601;48.042;12.240;2022-10-16T12:59:43;96454.84;;;24.19;46.42
12757;BME280;31601;48.042;12.240;2022-10-16T13:02:39;96460.47;;;24.17;46.64
12757;BME280;31601;48.042;12.240;2022-10-16T13:05:28;96461.84;;;24.40;44.60
12757;BME280;31601;48.042;12.240;2022-10-16T13:08:11;96467.22;;;24.40;45.04
12757;BME280;31601;48.042;12.240;2022-10-16T13:10:48;96458.13;;;24.57;44.66